Nearby METAR Reports

 

KSJC - San Jose, California, USA
Distance from station: NE 9mi, 14km
Updated: Thu, Jul-20-2017 2:53pm CDT
Clear
Clear
 Wind from WNW
Wind: WNW 10 mph , 17 km/h
Temperature: 75°F , 24°C
Dew Point: 57°F , 14°C
Humidity: 54%
Barometer: 30.05 inHg , 1017.6 hPa
Clouds: Clear
Visibility: 10 miles , 16 km
2017/07/20 19:53 KSJC 201953Z 29009KT 10SM CLR 24/14 A3005 RMK AO2 SLP174 T02440144
KNUQ - Moffett Nas/Mtn, California, USA
Distance from station: N 9mi, 14km
Updated: Thu, Jul-20-2017 2:56pm CDT
Clear
Clear
 Wind from N
Wind: N 13 mph , 20 km/h
Temperature: 70°F , 21°C
Dew Point: 57°F , 14°C
Humidity: 64%
Barometer: 30.06 inHg , 1017.9 hPa
Clouds: Clear
Visibility: 10 miles , 16 km
2017/07/20 19:56 KNUQ 201956Z 35011KT 10SM CLR 21/14 A3006 RMK AO2 SLP183 T02110144
 
KPAO - Palo Alto, California, USA
Distance from station: NNW 14mi, 23km
Updated: Thu, Jul-20-2017 2:47pm CDT
Clear
Clear
 Wind from N
Wind: N 15 mph , 24 km/h
Temperature: 70°F , 21°C
Dew Point: 61°F , 16°C
Humidity: 73%
Barometer: 30.06 inHg , 1017.9 hPa
Clouds: Clear
Visibility: 10 miles , 16 km
2017/07/20 19:47 KPAO 201947Z 35013KT 10SM SKC 21/16 A3006
KRHV - San Jose/Reid, California, USA
Distance from station: ENE 12mi, 19km
Updated: Thu, Jul-20-2017 2:47pm CDT
Clear
Clear
 Wind from NNW
Wind: NNW 9 mph , 15 km/h
Temperature: 81°F , 27°C
Dew Point: 52°F , 11°C
Humidity: 37%
Barometer: 30.06 inHg , 1017.9 hPa
Clouds: Clear
Visibility: 10 miles , 16 km
2017/07/20 19:47 KRHV 201947Z 33008KT 10SM SKC 27/11 A3006
 
KOAK - Oakland, California, USA
Distance from station: NNW 31mi, 50km
Updated: Thu, Jul-20-2017 2:53pm CDT
Few Clouds
Few Clouds
 Wind from W
Wind: W 8 mph , 13 km/h
Temperature: 66°F , 19°C
Dew Point: 55°F , 13°C
Humidity: 68%
Barometer: 30.07 inHg , 1018.3 hPa
Clouds: Few Clouds
Visibility: 10 miles , 16 km
Cloud details: Few Clouds 1100 ft
2017/07/20 19:53 KOAK 201953Z 26007KT 10SM FEW011 19/13 A3007 RMK AO2 SLP182 T01890133
KSQL - San Carlos Airpo, California, USA
Distance from station: NW 21mi, 34km
Updated: Thu, Jul-20-2017 2:47pm CDT
Clear
Clear
 Wind from WNW
Wind: WNW 12 mph , 19 km/h
Temperature: 70°F , 21°C
Dew Point: 52°F , 11°C
Humidity: 53%
Barometer: 30.07 inHg , 1018.3 hPa
Clouds: Clear
Visibility: 10 miles , 16 km
2017/07/20 19:47 KSQL 201947Z 30010KT 10SM SKC 21/11 A3007
 
KSFO - San Francisco, California, USA
Distance from station: NW 30mi, 49km
Updated: Thu, Jul-20-2017 2:56pm CDT
Few Clouds
Few Clouds
 Wind from W
Wind: W 21 mph , 33 km/h
Temperature: 66°F , 19°C
Dew Point: 52°F , 11°C
Humidity: 60%
Barometer: 30.07 inHg , 1018.3 hPa
Clouds: Few Clouds
Visibility: 10 miles , 16 km
Cloud details: Few Clouds 3500 ft
2017/07/20 19:56 KSFO 201956Z 28018KT 10SM FEW035 19/11 A3007 RMK AO2 SLP181 T01890111
KE16 - San Martin, California, USA
Distance from station: ESE 27mi, 43km
Updated: Fri, Jul-14-2017 4:15pm CDT
NOT Current
Clear
Clear
 Wind from SSE
Wind: SSE 7 mph , 11 km/h
Temperature: 90°F , 32°C
Dew Point: 46°F , 8°C
Humidity: 22%
Barometer: 30.01 inHg , 1016.3 hPa
Clouds: Clear
Visibility: 10 miles , 16 km
2017/07/14 21:15 KE16 142115Z AUTO 16006KT 10SM CLR 32/08 A3001 RMK AO2
 
KWVI - Watsonville, California, USA
Distance from station: SSE 27mi, 44km
Updated: Thu, Jul-20-2017 2:53pm CDT
Clear
Clear
 Wind from SSE
Wind: SSE 8 mph , 13 km/h
Temperature: 66°F , 19°C
Dew Point: 55°F , 13°C
Humidity: 68%
Barometer: 30.09 inHg , 1019 hPa
Clouds: Clear
Visibility: 10 miles , 16 km
2017/07/20 19:53 KWVI 201953Z AUTO 16007KT 10SM CLR 19/13 A3009 RMK AO2 SLP188 T01940133
KHAF - Half Moon Bay, California, USA
Distance from station: WNW 31mi, 50km
Updated: Thu, Jul-20-2017 3:15pm CDT
Overcast
Overcast
 Wind from NW
Wind: NW 10 mph , 17 km/h
Temperature: 59°F , 15°C
Dew Point: 55°F , 13°C
Humidity: 88%
Barometer: 30.08 inHg , 1018.6 hPa
Clouds: Overcast
Visibility: 8 miles , 13 km
Cloud details: Overcast 600 ft
2017/07/20 20:15 KHAF 202015Z AUTO 32009KT 8SM OVC006 15/13 A3008 RMK AO2
 
KHWD - Hayward, California, USA
Distance from station: N 28mi, 44km
Updated: Thu, Jul-20-2017 2:54pm CDT
Clear
Clear
 Wind from WNW
Wind: WNW 13 mph , 20 km/h
Temperature: 66°F , 19°C
Dew Point: 52°F , 11°C
Humidity: 60%
Barometer: 30.07 inHg , 1018.3 hPa
Clouds: Clear
Visibility: 10 miles , 16 km
2017/07/20 19:54 KHWD 201954Z 29011KT 10SM CLR 19/11 A3007 RMK AO2 SLP192 T01940111
KLVK - Livermore, California, USA
Distance from station: NNE 31mi, 51km
Updated: Thu, Jul-20-2017 2:53pm CDT
Clear
Clear
 Wind from WNW
Wind: WNW 13 mph , 20 km/h
Temperature: 81°F , 27°C
Dew Point: 54°F , 12°C
Humidity: 39%
Barometer: 30.03 inHg , 1016.9 hPa
Clouds: Clear
Visibility: 10 miles , 16 km
2017/07/20 19:53 KLVK 201953Z 30011KT 10SM CLR 27/12 A3003 RMK AO2 SLP165 T02670117